createdAt,value
2017-09-26T00:00:38.993Z,98736.68
2017-09-26T00:03:07.336Z,98740.00
2017-09-26T00:05:36.765Z,98732.12
2017-09-26T00:08:05.087Z,98736.97
2017-09-26T00:10:33.401Z,98731.27
2017-09-26T00:13:02.510Z,98736.55
2017-09-26T00:15:30.829Z,98736.72
2017-09-26T00:17:59.170Z,98728.32
2017-09-26T00:20:28.340Z,98726.84
2017-09-26T00:22:57.246Z,98725.37
2017-09-26T00:25:25.563Z,98728.31
2017-09-26T00:27:53.887Z,98731.30
2017-09-26T00:30:22.220Z,98725.69
2017-09-26T00:32:51.307Z,98727.61
2017-09-26T00:35:19.642Z,98726.95
2017-09-26T00:37:47.971Z,98728.44
2017-09-26T00:40:16.318Z,98733.59
2017-09-26T00:42:45.421Z,98724.09
2017-09-26T00:45:14.491Z,98730.35
2017-09-26T00:47:42.799Z,98732.94
2017-09-26T00:50:11.841Z,98729.82
2017-09-26T00:52:40.155Z,98728.23
2017-09-26T00:55:08.446Z,98733.48
2017-09-26T00:57:36.763Z,98733.14
2017-09-26T01:00:05.052Z,98726.83
2017-09-26T01:02:33.346Z,98727.41
2017-09-26T01:08:08.375Z,98733.07
2017-09-26T01:10:36.692Z,98726.83
2017-09-26T01:13:04.975Z,98724.53
2017-09-26T01:15:33.289Z,98727.59
2017-09-26T01:18:02.372Z,98721.83
2017-09-26T01:20:31.765Z,98723.84
2017-09-26T01:23:00.088Z,98725.81
2017-09-26T01:25:28.412Z,98727.05
2017-09-26T01:27:57.227Z,98728.48
2017-09-26T01:30:26.731Z,98728.94
2017-09-26T01:32:55.833Z,98729.67
2017-09-26T01:35:24.923Z,98731.13
2017-09-26T01:37:53.262Z,98724.74
2017-09-26T01:40:21.584Z,98726.99
2017-09-26T01:42:49.909Z,98723.67
2017-09-26T01:45:18.254Z,98723.97
2017-09-26T01:47:46.573Z,98727.37
2017-09-26T01:50:15.685Z,98722.16
2017-09-26T01:52:43.994Z,98722.91
2017-09-26T01:55:13.130Z,98720.00
2017-09-26T01:57:43.708Z,98716.64
2017-09-26T02:00:12.583Z,98718.47
2017-09-26T02:02:41.027Z,98714.02
2017-09-26T02:05:09.361Z,98720.03
2017-09-26T02:07:37.708Z,98709.79
2017-09-26T02:10:06.049Z,98716.88
2017-09-26T02:12:34.392Z,98716.97
2017-09-26T02:15:02.820Z,98716.55
2017-09-26T02:17:31.144Z,98714.21
2017-09-26T02:19:59.562Z,98713.75
2017-09-26T02:22:28.646Z,98710.81
2017-09-26T02:24:57.756Z,98711.59
2017-09-26T02:27:26.079Z,98710.16
2017-09-26T02:29:54.432Z,98703.94
2017-09-26T02:32:22.774Z,98707.13
2017-09-26T02:34:51.109Z,98705.16
2017-09-26T02:37:19.467Z,98710.16
2017-09-26T02:39:47.787Z,98709.55
2017-09-26T02:42:16.207Z,98712.25
2017-09-26T02:44:45.296Z,98708.97
2017-09-26T02:47:13.990Z,98709.29
2017-09-26T02:49:42.315Z,98710.00
2017-09-26T02:52:10.631Z,98703.57
2017-09-26T02:54:39.727Z,98713.89
2017-09-26T02:57:08.929Z,98714.22
2017-09-26T02:59:38.032Z,98712.58
2017-09-26T03:02:07.128Z,98709.05
2017-09-26T03:04:36.308Z,98705.56
2017-09-26T03:07:04.642Z,98705.84
2017-09-26T03:09:32.989Z,98706.37
2017-09-26T03:12:02.136Z,98704.77
2017-09-26T03:14:30.451Z,98707.44
2017-09-26T03:16:58.793Z,98705.20
2017-09-26T03:19:27.131Z,98705.12
2017-09-26T03:21:55.478Z,98712.09
2017-09-26T03:24:24.572Z,98707.17
2017-09-26T03:26:52.890Z,98714.88
2017-09-26T03:29:21.253Z,98714.50
2017-09-26T03:31:50.344Z,98710.78
2017-09-26T03:34:19.461Z,98711.80
2017-09-26T03:36:47.812Z,98710.12
2017-09-26T03:39:16.148Z,98709.19
2017-09-26T03:41:44.496Z,98714.39
2017-09-26T03:44:12.813Z,98713.98
2017-09-26T03:46:41.193Z,98716.88
2017-09-26T03:49:09.509Z,98715.33
2017-09-26T03:51:37.934Z,98716.69
2017-09-26T03:54:06.262Z,98710.86
2017-09-26T03:56:34.668Z,98715.90
2017-09-26T03:59:03.763Z,98712.05
2017-09-26T04:01:32.942Z,98717.88
2017-09-26T04:04:01.362Z,98716.88
2017-09-26T04:06:30.465Z,98713.98
2017-09-26T04:08:58.806Z,98719.05
2017-09-26T04:11:27.123Z,98714.71
2017-09-26T04:13:55.510Z,98715.70
2017-09-26T04:16:23.831Z,98722.05
2017-09-26T04:18:52.221Z,98714.88
2017-09-26T04:21:21.323Z,98719.09
2017-09-26T04:23:49.644Z,98722.05
2017-09-26T04:26:17.979Z,98720.49
2017-09-26T04:28:47.077Z,98723.61
2017-09-26T04:31:16.300Z,98730.41
2017-09-26T04:33:44.628Z,98722.50
2017-09-26T04:36:12.977Z,98727.29
2017-09-26T04:38:41.316Z,98732.70
2017-09-26T04:41:09.794Z,98727.70
2017-09-26T04:43:38.148Z,98733.69
2017-09-26T04:46:07.282Z,98739.67
2017-09-26T04:48:35.627Z,98735.73
2017-09-26T04:51:03.939Z,98732.78
2017-09-26T04:53:33.039Z,98740.08
2017-09-26T04:56:01.417Z,98729.09
2017-09-26T04:58:29.787Z,98740.12
2017-09-26T05:00:58.139Z,98736.92
2017-09-26T05:03:26.631Z,98742.33
2017-09-26T05:05:55.249Z,98743.97
2017-09-26T05:08:24.416Z,98742.25
2017-09-26T05:10:52.790Z,98741.55
2017-09-26T05:13:21.206Z,98747.75
2017-09-26T05:15:50.303Z,98747.41
2017-09-26T05:18:18.654Z,98747.81
2017-09-26T05:20:46.977Z,98748.81
2017-09-26T05:23:15.299Z,98752.55
2017-09-26T05:25:43.635Z,98751.34
2017-09-26T05:28:12.088Z,98758.47
2017-09-26T05:30:41.218Z,98756.84
2017-09-26T05:33:09.557Z,98759.02
2017-09-26T05:35:38.264Z,98760.86
2017-09-26T05:38:07.348Z,98762.69
2017-09-26T05:40:36.450Z,98764.45
2017-09-26T05:43:05.558Z,98767.08
2017-09-26T05:45:34.755Z,98768.14
2017-09-26T05:48:14.962Z,98767.48
2017-09-26T05:50:45.568Z,98769.14
2017-09-26T05:53:14.035Z,98767.79
2017-09-26T05:55:42.367Z,98768.24
2017-09-26T05:58:16.352Z,98772.02
2017-09-26T06:00:46.915Z,98768.24
2017-09-26T06:03:15.261Z,98774.22
2017-09-26T06:05:44.541Z,98773.45
2017-09-26T06:08:12.874Z,98772.31
2017-09-26T06:10:41.602Z,98773.82
2017-09-26T06:13:10.695Z,98776.66
2017-09-26T06:15:41.940Z,98773.62
2017-09-26T06:18:13.238Z,98775.58
2017-09-26T06:20:44.921Z,98780.83
2017-09-26T06:23:13.313Z,98782.27
2017-09-26T06:25:42.402Z,98777.97
2017-09-26T06:28:10.815Z,98781.98
2017-09-26T06:30:39.935Z,98782.14
2017-09-26T06:33:08.389Z,98777.34
2017-09-26T06:35:37.507Z,98779.15
2017-09-26T06:38:05.851Z,98778.87
2017-09-26T06:40:34.959Z,98786.12
2017-09-26T06:43:04.044Z,98784.92
2017-09-26T06:45:32.416Z,98785.50
2017-09-26T06:48:00.748Z,98786.56
2017-09-26T06:50:34.118Z,98781.77
2017-09-26T06:53:02.561Z,98793.17
2017-09-26T06:55:30.929Z,98789.92
2017-09-26T06:57:59.247Z,98790.00
2017-09-26T07:00:28.342Z,98792.91
2017-09-26T07:02:57.443Z,98793.45
2017-09-26T07:05:26.534Z,98795.95
2017-09-26T07:07:55.652Z,98797.14
2017-09-26T07:10:23.991Z,98791.05
2017-09-26T07:12:52.591Z,98793.25
2017-09-26T07:15:20.902Z,98791.16
2017-09-26T07:17:49.225Z,98799.59
2017-09-26T07:20:17.580Z,98794.80
2017-09-26T07:22:45.914Z,98802.55
2017-09-26T07:25:15.029Z,98802.17
2017-09-26T07:27:43.357Z,98803.55
2017-09-26T07:30:11.700Z,98802.17
2017-09-26T07:32:40.015Z,98808.56
2017-09-26T07:35:08.397Z,98806.55
2017-09-26T07:37:36.738Z,98811.48
2017-09-26T07:40:05.356Z,98814.84
2017-09-26T07:42:33.673Z,98812.30
2017-09-26T07:45:02.771Z,98820.05
2017-09-26T07:47:32.120Z,98818.53
2017-09-26T07:50:00.463Z,98825.45
2017-09-26T07:52:28.849Z,98822.77
2017-09-26T07:54:57.175Z,98822.06
2017-09-26T07:57:25.520Z,98823.13
2017-09-26T07:59:53.859Z,98826.22
2017-09-26T08:02:22.510Z,98823.25
2017-09-26T08:04:53.264Z,98823.62
2017-09-26T08:07:23.293Z,98821.49
2017-09-26T08:09:55.458Z,98814.89
2017-09-26T08:12:24.366Z,98813.84
2017-09-26T08:14:54.395Z,98808.02
2017-09-26T08:17:23.214Z,98812.11
2017-09-26T08:19:52.187Z,98813.05
2017-09-26T08:22:21.244Z,98811.74
2017-09-26T08:24:50.170Z,98817.75
2017-09-26T08:27:20.067Z,98816.55
2017-09-26T08:29:49.173Z,98810.08
2017-09-26T08:32:18.310Z,98808.92
2017-09-26T08:34:46.639Z,98814.81
2017-09-26T08:37:15.790Z,98817.19
2017-09-26T08:39:44.144Z,98816.30
2017-09-26T08:42:12.471Z,98814.90
2017-09-26T08:44:40.818Z,98811.14
2017-09-26T08:47:09.196Z,98812.87
2017-09-26T08:49:37.586Z,98817.09
2017-09-26T08:52:05.950Z,98821.74
2017-09-26T08:54:34.341Z,98813.75
2017-09-26T08:57:02.670Z,98814.80
2017-09-26T08:59:31.994Z,98811.16
2017-09-26T09:02:02.211Z,98807.48
2017-09-26T09:04:31.311Z,98809.94
2017-09-26T09:07:00.407Z,98807.11
2017-09-26T09:09:29.782Z,98809.43
2017-09-26T09:11:58.115Z,98807.82
2017-09-26T09:14:26.449Z,98810.73
2017-09-26T09:16:54.809Z,98805.58
2017-09-26T09:19:23.135Z,98806.78
2017-09-26T09:21:51.486Z,98804.13
2017-09-26T09:24:19.816Z,98804.53
2017-09-26T09:26:48.169Z,98797.02
2017-09-26T09:29:17.259Z,98793.88
2017-09-26T09:31:46.736Z,98797.63
2017-09-26T09:34:15.079Z,98802.62
2017-09-26T09:36:43.416Z,98799.56
2017-09-26T09:39:12.548Z,98801.47
2017-09-26T09:41:40.855Z,98800.46
2017-09-26T09:44:09.249Z,98804.51
2017-09-26T09:46:37.590Z,98812.65
2017-09-26T09:49:05.956Z,98809.34
2017-09-26T09:51:34.293Z,98809.33
2017-09-26T09:54:02.916Z,98810.36
2017-09-26T09:56:31.238Z,98812.89
2017-09-26T09:58:59.588Z,98811.31
2017-09-26T10:01:27.941Z,98812.41
2017-09-26T10:03:57.137Z,98812.48
2017-09-26T10:06:26.251Z,98818.26
2017-09-26T10:08:54.571Z,98814.42
2017-09-26T10:11:22.924Z,98816.72
2017-09-26T10:13:51.243Z,98814.56
2017-09-26T10:16:20.162Z,98814.45
2017-09-26T10:18:48.504Z,98810.08
2017-09-26T10:21:16.839Z,98816.25
2017-09-26T10:23:45.193Z,98815.81
2017-09-26T10:26:14.289Z,98813.14
2017-09-26T10:28:43.392Z,98812.39
2017-09-26T10:31:11.751Z,98804.24
2017-09-26T10:33:40.100Z,98809.80
2017-09-26T10:36:08.432Z,98809.56
2017-09-26T10:38:36.785Z,98806.23
2017-09-26T10:41:05.141Z,98806.21
2017-09-26T10:43:33.464Z,98807.13
2017-09-26T10:46:01.839Z,98808.07
2017-09-26T10:48:30.957Z,98812.63
2017-09-26T10:50:59.296Z,98802.39
2017-09-26T10:53:27.613Z,98800.92
2017-09-26T10:55:57.643Z,98800.22
2017-09-26T10:58:25.991Z,98801.27
2017-09-26T11:00:55.106Z,98807.52
2017-09-26T11:03:24.223Z,98799.02
2017-09-26T11:05:52.545Z,98800.55
2017-09-26T11:08:23.062Z,98802.11
2017-09-26T11:10:51.519Z,98802.88
2017-09-26T11:13:19.851Z,98800.48
2017-09-26T11:15:48.265Z,98805.03
2017-09-26T11:18:16.690Z,98799.53
2017-09-26T11:20:45.044Z,98800.52
2017-09-26T11:23:13.422Z,98803.44
2017-09-26T11:25:42.204Z,98803.27
2017-09-26T11:28:10.582Z,98808.06
2017-09-26T11:30:40.084Z,98801.50
2017-09-26T11:33:08.432Z,98799.02
2017-09-26T11:35:37.530Z,98794.33
2017-09-26T11:38:07.058Z,98795.69
2017-09-26T11:40:36.150Z,98797.48
2017-09-26T11:43:04.487Z,98798.09
2017-09-26T11:45:32.841Z,98796.59
2017-09-26T11:48:01.593Z,98797.31
2017-09-26T11:50:29.951Z,98795.03
2017-09-26T11:52:58.297Z,98795.40
2017-09-26T11:55:26.663Z,98796.58
2017-09-26T11:57:54.985Z,98795.16
2017-09-26T12:00:23.328Z,98796.89
2017-09-26T12:02:51.675Z,98792.46
2017-09-26T12:05:20.560Z,98794.66
2017-09-26T12:07:49.646Z,98788.86
2017-09-26T12:10:19.060Z,98789.32
2017-09-26T12:12:53.441Z,98785.97
2017-09-26T12:15:21.778Z,98787.37
2017-09-26T12:17:50.112Z,98781.86
2017-09-26T12:20:18.450Z,98780.56
2017-09-26T12:22:47.722Z,98781.63
2017-09-26T12:25:16.812Z,98778.94
2017-09-26T12:27:45.477Z,98777.63
2017-09-26T12:30:13.824Z,98774.92
2017-09-26T12:32:42.143Z,98771.27
2017-09-26T12:35:10.484Z,98774.13
2017-09-26T12:37:38.939Z,98773.73
2017-09-26T12:40:11.967Z,98769.25
2017-09-26T12:42:40.336Z,98770.08
2017-09-26T12:45:08.685Z,98772.05
2017-09-26T12:47:37.064Z,98770.73
2017-09-26T12:50:05.419Z,98765.93
2017-09-26T12:52:34.528Z,98765.42
2017-09-26T12:55:02.858Z,98766.90
2017-09-26T12:57:31.220Z,98771.75
2017-09-26T12:59:59.539Z,98769.39
2017-09-26T13:02:27.890Z,98760.92
2017-09-26T13:04:56.226Z,98753.27
2017-09-26T13:07:25.046Z,98761.01
2017-09-26T13:09:53.578Z,98764.91
2017-09-26T13:12:22.164Z,98767.86
2017-09-26T13:14:50.985Z,98765.31
2017-09-26T13:17:19.479Z,98763.73
2017-09-26T13:19:47.866Z,98752.91
2017-09-26T13:22:16.302Z,98751.83
2017-09-26T13:24:45.406Z,98756.22
2017-09-26T13:27:13.888Z,98756.87
2017-09-26T13:29:43.020Z,98749.63
2017-09-26T13:32:11.388Z,98744.97
2017-09-26T13:34:39.737Z,98753.09
2017-09-26T13:37:08.080Z,98752.80
2017-09-26T13:39:36.419Z,98751.13
2017-09-26T13:42:04.757Z,98751.37
2017-09-26T13:44:33.102Z,98755.92
2017-09-26T13:47:01.450Z,98751.47
2017-09-26T13:49:30.119Z,98746.62
2017-09-26T13:51:58.463Z,98754.12
2017-09-26T13:54:27.590Z,98744.08
2017-09-26T13:56:56.679Z,98754.23
2017-09-26T13:59:25.004Z,98745.05
2017-09-26T14:01:53.335Z,98745.08
2017-09-26T14:04:22.035Z,98745.35
2017-09-26T14:06:50.394Z,98749.28
2017-09-26T14:09:18.856Z,98745.81
2017-09-26T14:11:47.313Z,98746.30
2017-09-26T14:14:15.818Z,98743.31
2017-09-26T14:16:44.249Z,98744.23
2017-09-26T14:19:12.716Z,98750.30
2017-09-26T14:21:41.046Z,98739.59
2017-09-26T14:24:09.443Z,98735.35
2017-09-26T14:26:37.888Z,98738.82
2017-09-26T14:29:07.071Z,98749.69
2017-09-26T14:31:36.318Z,98740.32
2017-09-26T14:34:04.672Z,98743.70
2017-09-26T14:36:33.011Z,98742.43
2017-09-26T14:39:01.318Z,98743.03
2017-09-26T14:41:30.666Z,98742.28
2017-09-26T14:43:58.980Z,98741.64
2017-09-26T14:46:27.332Z,98745.13
2017-09-26T14:48:55.693Z,98753.51
2017-09-26T14:51:24.148Z,98752.69
2017-09-26T14:53:53.370Z,98750.55
2017-09-26T14:56:21.755Z,98751.83
2017-09-26T14:58:51.458Z,98749.69
2017-09-26T15:01:19.769Z,98738.99
2017-09-26T15:03:48.107Z,98741.55
2017-09-26T15:06:16.457Z,98741.81
2017-09-26T15:08:45.557Z,98742.78
2017-09-26T15:11:14.678Z,98743.84
2017-09-26T15:13:43.010Z,98746.16
2017-09-26T15:16:11.381Z,98755.23
2017-09-26T15:18:42.120Z,98753.34
2017-09-26T15:21:10.484Z,98753.42
2017-09-26T15:23:39.289Z,98758.70
2017-09-26T15:26:07.630Z,98752.27
2017-09-26T15:28:36.016Z,98750.91
2017-09-26T15:31:04.354Z,98749.76
2017-09-26T15:33:33.788Z,98754.69
2017-09-26T15:36:02.115Z,98754.86
2017-09-26T15:38:30.463Z,98752.83
2017-09-26T15:40:58.808Z,98754.27
2017-09-26T15:43:27.904Z,98757.22
2017-09-26T15:45:57.011Z,98757.59
2017-09-26T15:48:26.110Z,98756.77
2017-09-26T15:50:54.455Z,98753.23
2017-09-26T15:53:22.808Z,98755.27
2017-09-26T15:55:51.150Z,98751.31
2017-09-26T15:58:19.522Z,98754.89
2017-09-26T16:00:48.612Z,98759.97
2017-09-26T16:03:17.745Z,98755.22
2017-09-26T16:05:46.080Z,98768.14
2017-09-26T16:08:15.431Z,98766.77
2017-09-26T16:10:43.795Z,98769.34
2017-09-26T16:13:12.128Z,98772.38
2017-09-26T16:15:40.490Z,98774.40
2017-09-26T16:18:08.835Z,98779.66
2017-09-26T16:20:37.168Z,98779.39
2017-09-26T16:23:05.498Z,98784.45
2017-09-26T16:25:34.092Z,98788.53
2017-09-26T16:28:02.435Z,98784.36
2017-09-26T16:30:31.545Z,98781.61
2017-09-26T16:32:59.903Z,98781.13
2017-09-26T16:35:30.929Z,98781.86
2017-09-26T16:37:59.281Z,98785.45
2017-09-26T16:40:35.697Z,98791.28
2017-09-26T16:43:05.075Z,98789.45
2017-09-26T16:45:33.422Z,98793.97
2017-09-26T16:48:01.764Z,98793.34
2017-09-26T16:50:30.883Z,98795.28
2017-09-26T16:52:59.212Z,98798.30
2017-09-26T16:55:27.567Z,98800.08
2017-09-26T16:57:55.912Z,98804.81
2017-09-26T17:00:24.584Z,98806.03
2017-09-26T17:02:53.668Z,98809.06
2017-09-26T17:05:22.791Z,98809.55
2017-09-26T17:07:51.156Z,98815.83
2017-09-26T17:10:20.281Z,98819.16
2017-09-26T17:12:48.623Z,98820.28
2017-09-26T17:15:17.716Z,98819.61
2017-09-26T17:17:46.319Z,98823.02
2017-09-26T17:20:14.659Z,98821.67
2017-09-26T17:22:42.989Z,98828.28
2017-09-26T17:25:11.341Z,98828.74
2017-09-26T17:27:40.435Z,98828.17
2017-09-26T17:30:08.790Z,98834.87
2017-09-26T17:32:37.127Z,98831.84
2017-09-26T17:35:05.498Z,98832.77
2017-09-26T17:37:33.849Z,98841.50
2017-09-26T17:40:02.220Z,98848.03
2017-09-26T17:42:30.570Z,98853.58
2017-09-26T17:44:58.925Z,98862.92
2017-09-26T17:47:27.289Z,98859.38
2017-09-26T17:49:56.390Z,98867.39
2017-09-26T17:52:24.764Z,98870.53
2017-09-26T17:54:53.870Z,98874.58
2017-09-26T17:57:22.233Z,98873.67
2017-09-26T17:59:51.365Z,98879.83
2017-09-26T18:02:19.747Z,98883.27
2017-09-26T18:04:48.105Z,98890.88
2017-09-26T18:07:17.408Z,98900.02
2017-09-26T18:09:46.568Z,98896.56
2017-09-26T18:12:14.911Z,98900.26
2017-09-26T18:14:43.527Z,98896.11
2017-09-26T18:17:11.873Z,98902.70
2017-09-26T18:19:40.240Z,98895.36
2017-09-26T18:22:08.581Z,98909.80
2017-09-26T18:24:36.930Z,98906.13
2017-09-26T18:27:05.302Z,98910.87
2017-09-26T18:29:33.647Z,98905.75
2017-09-26T18:32:02.002Z,98910.18
2017-09-26T18:34:31.105Z,98912.74
2017-09-26T18:37:00.804Z,98912.64
2017-09-26T18:39:29.155Z,98914.98
2017-09-26T18:41:57.552Z,98917.02
2017-09-26T18:44:25.896Z,98916.17
2017-09-26T18:46:54.233Z,98912.39
2017-09-26T18:49:26.777Z,98917.89
2017-09-26T18:51:55.131Z,98922.12
2017-09-26T18:54:23.495Z,98921.41
2017-09-26T18:56:51.837Z,98925.46
2017-09-26T18:59:20.172Z,98925.23
2017-09-26T19:01:48.553Z,98924.03
2017-09-26T19:04:16.880Z,98926.05
2017-09-26T19:06:45.544Z,98937.55
2017-09-26T19:09:13.884Z,98927.55
2017-09-26T19:11:42.211Z,98933.86
2017-09-26T19:14:10.589Z,98935.63
2017-09-26T19:16:38.942Z,98939.42
2017-09-26T19:19:07.287Z,98944.50
2017-09-26T19:21:36.380Z,98941.56
2017-09-26T19:24:05.055Z,98940.96
2017-09-26T19:26:33.420Z,98937.16
2017-09-26T19:29:01.800Z,98938.47
2017-09-26T19:31:30.167Z,98936.36
2017-09-26T19:33:58.518Z,98936.22
2017-09-26T19:36:26.907Z,98938.77
2017-09-26T19:38:56.160Z,98943.84
2017-09-26T19:41:24.548Z,98943.38
2017-09-26T19:43:53.748Z,98943.08
2017-09-26T19:46:22.838Z,98940.21
2017-09-26T19:48:52.067Z,98943.66
2017-09-26T19:51:20.414Z,98943.14
2017-09-26T19:53:49.535Z,98946.35
2017-09-26T19:56:17.870Z,98946.76
2017-09-26T19:58:46.580Z,98945.30
2017-09-26T20:01:14.921Z,98946.06
2017-09-26T20:03:43.247Z,98944.09
2017-09-26T20:06:12.569Z,98943.73
2017-09-26T20:08:41.843Z,98946.81
2017-09-26T20:11:11.795Z,98947.17
2017-09-26T20:13:40.134Z,98948.21
2017-09-26T20:16:12.296Z,98950.26
2017-09-26T20:18:40.651Z,98952.02
2017-09-26T20:21:09.004Z,98952.58
2017-09-26T20:23:37.366Z,98952.75
2017-09-26T20:26:05.709Z,98952.42
2017-09-26T20:28:34.055Z,98960.47
2017-09-26T20:31:02.396Z,98961.77
2017-09-26T20:33:31.236Z,98965.39
2017-09-26T20:35:59.752Z,98971.55
2017-09-26T20:38:28.930Z,98971.08
2017-09-26T20:40:57.281Z,98967.44
2017-09-26T20:43:25.607Z,98972.20
2017-09-26T20:45:54.733Z,98961.95
2017-09-26T20:48:23.062Z,98976.76
2017-09-26T20:50:51.423Z,98966.22
2017-09-26T20:53:19.783Z,98975.55
2017-09-26T20:55:48.107Z,98977.76
2017-09-26T20:58:16.558Z,98981.19
2017-09-26T21:00:44.899Z,98972.67
2017-09-26T21:03:14.272Z,98981.80
2017-09-26T21:05:42.632Z,98985.98
2017-09-26T21:08:10.964Z,98982.91
2017-09-26T21:10:39.320Z,98983.71
2017-09-26T21:13:07.687Z,98982.52
2017-09-26T21:15:36.032Z,98990.97
2017-09-26T21:18:05.137Z,98983.64
2017-09-26T21:20:33.800Z,98990.09
2017-09-26T21:23:02.135Z,98980.72
2017-09-26T21:25:31.228Z,98975.70
2017-09-26T21:27:59.574Z,98980.55
2017-09-26T21:30:27.901Z,98982.03
2017-09-26T21:32:57.038Z,98986.48
2017-09-26T21:35:25.358Z,98981.23
2017-09-26T21:37:53.725Z,98979.19
2017-09-26T21:40:22.044Z,98980.96
2017-09-26T21:42:51.167Z,98981.89
2017-09-26T21:45:19.501Z,98984.16
2017-09-26T21:47:47.820Z,98975.00
2017-09-26T21:50:16.147Z,98979.28
2017-09-26T21:52:44.565Z,98978.16
2017-09-26T21:55:13.923Z,98977.98
2017-09-26T21:57:42.247Z,98977.21
2017-09-26T22:00:11.888Z,98976.06
2017-09-26T22:02:40.229Z,98969.34
2017-09-26T22:05:09.325Z,98970.15
2017-09-26T22:07:37.668Z,98973.36
2017-09-26T22:10:06.004Z,98976.00
2017-09-26T22:12:35.311Z,98983.95
2017-09-26T22:15:03.651Z,98983.09
2017-09-26T22:17:32.005Z,98974.41
2017-09-26T22:20:00.361Z,98984.16
2017-09-26T22:22:28.681Z,98981.27
2017-09-26T22:24:57.024Z,98982.66
2017-09-26T22:27:25.369Z,98978.04
2017-09-26T22:29:53.703Z,98981.16
2017-09-26T22:32:22.055Z,98978.82
2017-09-26T22:34:50.388Z,98978.30
2017-09-26T22:37:19.500Z,98975.91
2017-09-26T22:39:47.827Z,98970.92
2017-09-26T22:42:16.185Z,98963.77
2017-09-26T22:44:44.534Z,98968.75
2017-09-26T22:47:13.676Z,98964.73
2017-09-26T22:49:42.000Z,98966.39
2017-09-26T22:52:11.098Z,98963.47
2017-09-26T22:54:39.449Z,98960.36
2017-09-26T22:57:07.766Z,98957.45
2017-09-26T22:59:36.896Z,98960.83
2017-09-26T23:02:05.222Z,98957.17
2017-09-26T23:04:33.813Z,98956.63
2017-09-26T23:07:02.140Z,98957.53
2017-09-26T23:09:30.488Z,98954.09
2017-09-26T23:11:59.590Z,98960.98
2017-09-26T23:14:28.426Z,98955.95
2017-09-26T23:16:56.797Z,98958.17
2017-09-26T23:19:25.896Z,98960.16
2017-09-26T23:21:54.241Z,98962.23
2017-09-26T23:24:22.581Z,98954.30
2017-09-26T23:26:50.988Z,98954.70
2017-09-26T23:29:20.119Z,98949.27
2017-09-26T23:31:48.444Z,98952.70
2017-09-26T23:34:16.870Z,98953.83
2017-09-26T23:36:45.199Z,98961.11
2017-09-26T23:39:13.799Z,98959.61
2017-09-26T23:41:42.896Z,98956.42
2017-09-26T23:44:11.215Z,98954.78
2017-09-26T23:46:39.568Z,98947.35
2017-09-26T23:49:08.669Z,98950.75
2017-09-26T23:51:37.937Z,98947.47
2017-09-26T23:54:06.277Z,98946.01
2017-09-26T23:56:34.617Z,98944.29
2017-09-26T23:59:03.702Z,98941.19
